createdAt,value
2022-10-01T01:37:39.337Z,996.40
2022-10-01T01:38:39.164Z,996.42
2022-10-01T01:39:39.283Z,996.45
2022-10-01T01:40:39.225Z,996.43
2022-10-01T01:41:39.218Z,996.36
2022-10-01T01:42:39.122Z,996.31
2022-10-01T01:43:39.146Z,996.31
2022-10-01T01:44:39.170Z,996.27
2022-10-01T01:45:39.128Z,996.30
2022-10-01T01:46:39.025Z,996.23
2022-10-01T01:47:38.989Z,996.23
2022-10-01T01:48:38.980Z,996.21
2022-10-01T01:49:38.996Z,996.18
2022-10-01T01:50:39.013Z,996.17
2022-10-01T01:51:38.953Z,996.19
2022-10-01T01:52:38.949Z,996.13
2022-10-01T01:53:38.905Z,996.08
2022-10-01T01:54:38.841Z,996.05
2022-10-01T01:55:38.801Z,996.02
2022-10-01T01:56:38.890Z,996.02
2022-10-01T01:57:38.800Z,996.01
2022-10-01T01:58:38.765Z,996.04
2022-10-01T01:59:38.773Z,996.05
2022-10-01T02:00:38.670Z,995.98
2022-10-01T02:01:39.218Z,995.99
2022-10-01T02:02:38.736Z,995.91
2022-10-01T02:03:38.656Z,995.91
2022-10-01T02:04:38.626Z,995.93
2022-10-01T02:05:38.598Z,995.86
2022-10-01T02:06:38.659Z,995.89
2022-10-01T02:07:38.562Z,995.84
2022-10-01T02:08:38.560Z,995.88
2022-10-01T02:09:38.482Z,995.83
2022-10-01T02:10:38.464Z,995.82
2022-10-01T02:11:38.542Z,995.84
2022-10-01T02:12:38.487Z,995.84
2022-10-01T02:13:38.437Z,995.82
2022-10-01T02:14:38.394Z,995.81
2022-10-01T02:15:38.419Z,995.81
2022-10-01T02:16:38.431Z,995.74
2022-10-01T02:17:38.350Z,995.73
2022-10-01T02:18:38.314Z,995.69
2022-10-01T02:19:38.262Z,995.66
2022-10-01T02:20:38.289Z,995.59
2022-10-01T02:21:38.242Z,995.51
2022-10-01T02:22:38.238Z,995.55
2022-10-01T02:23:38.176Z,995.50
2022-10-01T02:24:38.180Z,995.45
2022-10-01T02:25:38.143Z,995.38
2022-10-01T02:26:38.188Z,995.43
2022-10-01T02:27:38.198Z,995.39
2022-10-01T02:28:38.151Z,995.28
2022-10-01T02:29:38.056Z,995.28
2022-10-01T02:30:38.051Z,995.18
2022-10-01T02:31:38.481Z,995.18
2022-10-01T02:32:37.992Z,995.16
2022-10-01T02:33:37.954Z,995.07
2022-10-01T02:34:37.941Z,995.08
2022-10-01T02:35:37.917Z,994.97
2022-10-01T02:36:37.909Z,994.94
2022-10-01T02:37:38.219Z,994.97
2022-10-01T02:38:37.900Z,994.91
2022-10-01T02:39:37.857Z,994.93
2022-10-01T02:40:37.771Z,994.91
2022-10-01T02:41:37.779Z,994.90
2022-10-01T02:42:37.759Z,994.82
2022-10-01T02:43:42.623Z,994.83
2022-10-01T02:44:37.740Z,994.77
2022-10-01T02:45:37.718Z,994.76
2022-10-01T02:46:37.715Z,994.74
2022-10-01T02:47:37.661Z,994.67
2022-10-01T02:48:37.661Z,994.65
2022-10-01T02:49:37.596Z,994.71
2022-10-01T02:50:37.623Z,994.67
2022-10-01T02:51:37.519Z,994.67
2022-10-01T02:52:37.498Z,994.57
2022-10-01T02:53:37.475Z,994.57
2022-10-01T02:54:37.451Z,994.57
2022-10-01T02:55:37.430Z,994.60
2022-10-01T02:56:37.408Z,994.49
2022-10-01T02:57:37.400Z,994.57
2022-10-01T02:58:37.361Z,994.51
2022-10-01T02:59:37.338Z,994.54
2022-10-01T03:00:37.314Z,994.54
2022-10-01T03:01:37.675Z,994.48
2022-10-01T03:02:37.317Z,994.53
2022-10-01T03:03:37.246Z,994.47
2022-10-01T03:04:37.224Z,994.52
2022-10-01T03:05:37.200Z,994.57
2022-10-01T03:06:37.186Z,994.51
2022-10-01T03:07:37.155Z,994.53
2022-10-01T03:08:37.135Z,994.55
2022-10-01T03:09:37.112Z,994.52
2022-10-01T03:10:37.090Z,994.53
2022-10-01T03:11:37.065Z,994.49
2022-10-01T03:12:37.044Z,994.47
2022-10-01T03:13:37.035Z,994.45
2022-10-01T03:14:36.998Z,994.50
2022-10-01T03:15:37.010Z,994.47
2022-10-01T03:16:36.950Z,994.46
2022-10-01T03:17:36.928Z,994.50
2022-10-01T03:18:36.907Z,994.44
2022-10-01T03:19:36.882Z,994.45
2022-10-01T03:20:36.863Z,994.31
2022-10-01T03:21:37.011Z,994.32
2022-10-01T03:22:36.816Z,994.38
2022-10-01T03:23:36.791Z,994.38
2022-10-01T03:24:36.770Z,994.42
2022-10-01T03:25:36.746Z,994.50
2022-10-01T03:26:36.726Z,994.47
2022-10-01T03:27:36.701Z,994.57
2022-10-01T03:28:36.685Z,994.58
2022-10-01T03:29:36.687Z,994.55
2022-10-01T03:30:36.642Z,994.53
2022-10-01T03:31:37.120Z,994.57
2022-10-01T03:32:36.615Z,994.55
2022-10-01T03:33:36.585Z,994.56
2022-10-01T03:34:36.562Z,994.51
2022-10-01T03:35:36.517Z,994.39
2022-10-01T03:36:36.498Z,994.36
2022-10-01T03:37:36.474Z,994.38
2022-10-01T03:38:36.451Z,994.26
2022-10-01T03:39:36.434Z,994.33
2022-10-01T03:40:36.406Z,994.26
2022-10-01T03:41:36.659Z,994.23
2022-10-01T03:42:36.365Z,994.19
2022-10-01T03:43:36.340Z,994.20
2022-10-01T03:44:36.313Z,994.11
2022-10-01T03:45:36.386Z,994.13
2022-10-01T03:46:36.273Z,994.14
2022-10-01T03:47:36.244Z,994.10
2022-10-01T03:48:36.223Z,994.07
2022-10-01T03:49:36.200Z,994.11
2022-10-01T03:50:36.179Z,994.12
2022-10-01T03:51:36.642Z,994.03
2022-10-01T03:52:36.132Z,994.03
2022-10-01T03:53:36.111Z,994.00
2022-10-01T03:54:36.088Z,993.97
2022-10-01T03:55:36.064Z,993.94
2022-10-01T03:56:36.044Z,994.04
2022-10-01T03:57:36.019Z,994.00
2022-10-01T03:58:35.997Z,994.02
2022-10-01T03:59:35.971Z,993.97
2022-10-01T04:00:35.953Z,993.92
2022-10-01T04:01:36.547Z,993.96
2022-10-01T04:02:36.037Z,993.96
2022-10-01T04:03:35.881Z,993.92
2022-10-01T04:04:35.861Z,993.82
2022-10-01T04:05:35.841Z,993.70
2022-10-01T04:06:35.816Z,993.79
2022-10-01T04:07:35.791Z,993.71
2022-10-01T04:08:35.768Z,993.70
2022-10-01T04:09:35.746Z,993.73
2022-10-01T04:10:35.727Z,993.77
2022-10-01T04:11:35.979Z,993.79
2022-10-01T04:12:35.676Z,993.82
2022-10-01T04:13:35.660Z,993.76
2022-10-01T04:14:35.633Z,993.75
2022-10-01T04:15:35.610Z,993.76
2022-10-01T04:16:35.670Z,993.74
2022-10-01T04:17:35.596Z,993.73
2022-10-01T04:18:35.540Z,993.80
2022-10-01T04:19:35.516Z,993.79
2022-10-01T04:20:35.495Z,993.79
2022-10-01T04:21:35.917Z,993.75
2022-10-01T04:22:35.450Z,993.71
2022-10-01T04:23:35.426Z,993.69
2022-10-01T04:24:35.404Z,993.65
2022-10-01T04:25:35.382Z,993.59
2022-10-01T04:26:35.357Z,993.58
2022-10-01T04:27:35.334Z,993.49
2022-10-01T04:28:35.313Z,993.41
2022-10-01T04:29:39.970Z,993.44
2022-10-01T04:30:35.266Z,993.36
2022-10-01T04:31:36.033Z,993.49
2022-10-01T04:32:35.222Z,993.39
2022-10-01T04:33:35.213Z,993.34
2022-10-01T04:34:35.176Z,993.43
2022-10-01T04:35:35.149Z,993.43
2022-10-01T04:36:35.131Z,993.46
2022-10-01T04:37:35.108Z,993.33
2022-10-01T04:38:35.087Z,993.37
2022-10-01T04:39:35.070Z,993.36
2022-10-01T04:40:35.042Z,993.40
2022-10-01T04:41:35.376Z,993.41
2022-10-01T04:42:34.990Z,993.40
2022-10-01T04:43:34.967Z,993.38
2022-10-01T04:44:34.946Z,993.40
2022-10-01T04:45:34.920Z,993.39
2022-10-01T04:46:34.933Z,993.37
2022-10-01T04:47:37.586Z,993.38
2022-10-01T04:48:34.856Z,993.42
2022-10-01T04:49:34.852Z,993.38
2022-10-01T04:50:34.807Z,993.49
2022-10-01T04:51:35.232Z,993.47
2022-10-01T04:52:34.763Z,993.51
2022-10-01T04:53:34.747Z,993.44
2022-10-01T04:54:34.716Z,993.43
2022-10-01T04:55:34.690Z,993.52
2022-10-01T04:56:34.671Z,993.46
2022-10-01T04:57:34.648Z,993.45
2022-10-01T04:58:34.625Z,993.44
2022-10-01T04:59:34.601Z,993.43
2022-10-01T05:00:34.613Z,993.48
2022-10-01T05:01:34.957Z,993.41
2022-10-01T05:02:34.695Z,993.42
2022-10-01T05:03:34.511Z,993.45
2022-10-01T05:04:34.491Z,993.49
2022-10-01T05:05:34.597Z,993.45
2022-10-01T05:06:34.552Z,993.45
2022-10-01T05:07:34.459Z,993.46
2022-10-01T05:08:34.405Z,993.46
2022-10-01T05:09:34.376Z,993.38
2022-10-01T05:10:34.350Z,993.43
2022-10-01T05:11:34.704Z,993.41
2022-10-01T05:12:34.304Z,993.40
2022-10-01T05:13:34.279Z,993.34
2022-10-01T05:14:34.261Z,993.43
2022-10-01T05:15:34.235Z,993.47
2022-10-01T05:16:34.236Z,993.46
2022-10-01T05:17:34.190Z,993.54
2022-10-01T05:18:34.168Z,993.52
2022-10-01T05:19:34.142Z,993.51
2022-10-01T05:20:34.121Z,993.50
2022-10-01T05:21:34.464Z,993.52
2022-10-01T05:22:34.078Z,993.50
2022-10-01T05:23:34.052Z,993.50
2022-10-01T05:24:34.036Z,993.45
2022-10-01T05:25:34.010Z,993.49
2022-10-01T05:26:33.988Z,993.49
2022-10-01T05:27:33.961Z,993.47
2022-10-01T05:28:34.019Z,993.45
2022-10-01T05:29:33.920Z,993.43
2022-10-01T05:30:33.947Z,993.49
2022-10-01T05:31:34.273Z,993.48
2022-10-01T05:32:33.850Z,993.49
2022-10-01T05:33:33.825Z,993.57
2022-10-01T05:34:33.805Z,993.48
2022-10-01T05:35:33.778Z,993.54
2022-10-01T05:36:33.759Z,993.43
2022-10-01T05:37:33.752Z,993.48
2022-10-01T05:38:33.713Z,993.45
2022-10-01T05:39:33.688Z,993.40
2022-10-01T05:40:33.669Z,993.46
2022-10-01T05:41:33.892Z,993.43
2022-10-01T05:42:33.621Z,993.51
2022-10-01T05:43:33.598Z,993.46
2022-10-01T05:44:33.578Z,993.49
2022-10-01T05:45:33.618Z,993.46
2022-10-01T05:46:33.530Z,993.55
2022-10-01T05:47:33.506Z,993.50
2022-10-01T05:48:33.486Z,993.57
2022-10-01T05:49:33.461Z,993.59
2022-10-01T05:50:33.441Z,993.60
2022-10-01T05:51:33.741Z,993.63
2022-10-01T05:52:33.393Z,993.56
2022-10-01T05:53:33.390Z,993.60
2022-10-01T05:54:33.351Z,993.57
2022-10-01T05:55:33.366Z,993.50
2022-10-01T05:56:33.304Z,993.62
2022-10-01T05:57:33.288Z,993.59
2022-10-01T05:58:33.259Z,993.50
2022-10-01T05:59:33.237Z,993.49
2022-10-01T06:00:33.217Z,993.51
2022-10-01T06:01:33.451Z,993.55
2022-10-01T06:02:33.240Z,993.51
2022-10-01T06:03:33.145Z,993.60
2022-10-01T06:04:36.662Z,993.52
2022-10-01T06:05:33.104Z,993.57
2022-10-01T06:06:33.079Z,993.50
2022-10-01T06:07:33.056Z,993.52
2022-10-01T06:08:33.033Z,993.54
2022-10-01T06:09:33.027Z,993.50
2022-10-01T06:10:32.988Z,993.57
2022-10-01T06:11:33.243Z,993.57
2022-10-01T06:12:32.941Z,993.62
2022-10-01T06:13:32.919Z,993.60
2022-10-01T06:14:32.895Z,993.60
2022-10-01T06:15:32.876Z,993.56
2022-10-01T06:16:33.052Z,993.59
2022-10-01T06:17:32.830Z,993.65
2022-10-01T06:18:32.808Z,993.60
2022-10-01T06:19:32.786Z,993.59
2022-10-01T06:20:32.763Z,993.63
2022-10-01T06:21:32.991Z,993.62
2022-10-01T06:22:32.719Z,993.70
2022-10-01T06:23:32.693Z,993.67
2022-10-01T06:24:32.670Z,993.73
2022-10-01T06:25:32.710Z,993.70
2022-10-01T06:26:32.626Z,993.70
2022-10-01T06:27:32.607Z,993.65
2022-10-01T06:28:32.735Z,993.69
2022-10-01T06:29:32.561Z,993.67
2022-10-01T06:30:32.535Z,993.71
2022-10-01T06:31:32.910Z,993.81
2022-10-01T06:32:34.949Z,993.74
2022-10-01T06:33:32.471Z,993.80
2022-10-01T06:34:32.446Z,993.78
2022-10-01T06:35:32.425Z,993.85
2022-10-01T06:36:32.400Z,993.79
2022-10-01T06:37:32.381Z,993.83
2022-10-01T06:38:32.375Z,993.83
2022-10-01T06:39:32.336Z,993.86
2022-10-01T06:40:32.347Z,993.91
2022-10-01T06:41:32.610Z,993.95
2022-10-01T06:42:32.269Z,993.97
2022-10-01T06:43:32.245Z,994.07
2022-10-01T06:44:32.222Z,994.00
2022-10-01T06:45:32.261Z,993.98
2022-10-01T06:46:32.187Z,994.01
2022-10-01T06:47:32.162Z,994.08
2022-10-01T06:48:32.132Z,994.02
2022-10-01T06:49:32.112Z,993.98
2022-10-01T06:50:32.099Z,994.04
2022-10-01T06:51:32.470Z,994.02
2022-10-01T06:52:32.044Z,994.04
2022-10-01T06:53:32.024Z,994.09
2022-10-01T06:54:32.000Z,994.11
2022-10-01T06:55:31.977Z,994.06
2022-10-01T06:56:31.954Z,994.04
2022-10-01T06:57:31.961Z,993.99
2022-10-01T06:58:31.910Z,994.03
2022-10-01T06:59:31.890Z,994.00
2022-10-01T07:00:31.865Z,993.99
2022-10-01T07:01:32.308Z,994.03
2022-10-01T07:02:31.895Z,994.03
2022-10-01T07:03:31.803Z,994.01
2022-10-01T07:04:31.776Z,994.04
2022-10-01T07:05:31.755Z,993.96
2022-10-01T07:06:31.731Z,993.95
2022-10-01T07:07:31.713Z,994.03
2022-10-01T07:08:31.691Z,993.97
2022-10-01T07:09:31.667Z,994.01
2022-10-01T07:10:31.643Z,993.96
2022-10-01T07:11:31.914Z,993.98
2022-10-01T07:12:31.602Z,994.01
2022-10-01T07:13:31.595Z,994.03
2022-10-01T07:14:31.556Z,994.03
2022-10-01T07:15:31.542Z,994.02
2022-10-01T07:16:31.615Z,994.06
2022-10-01T07:17:31.489Z,994.07
2022-10-01T07:18:31.467Z,994.04
2022-10-01T07:19:31.448Z,994.05
2022-10-01T07:20:31.419Z,994.07
2022-10-01T07:21:31.825Z,994.01
2022-10-01T07:22:31.467Z,994.10
2022-10-01T07:23:31.366Z,994.15
2022-10-01T07:24:31.334Z,994.14
2022-10-01T07:25:31.315Z,994.15
2022-10-01T07:26:31.289Z,994.20
2022-10-01T07:27:31.267Z,994.11
2022-10-01T07:28:31.244Z,994.15
2022-10-01T07:29:31.241Z,994.09
2022-10-01T07:30:31.200Z,994.16
2022-10-01T07:31:31.295Z,994.14
2022-10-01T07:32:31.154Z,994.15
2022-10-01T07:33:31.140Z,994.17
2022-10-01T07:34:31.118Z,994.21
2022-10-01T07:35:31.088Z,994.23
2022-10-01T07:36:31.067Z,994.19
2022-10-01T07:37:31.045Z,994.21
2022-10-01T07:38:31.022Z,994.21
2022-10-01T07:39:31.001Z,994.21
2022-10-01T07:40:30.979Z,994.25
2022-10-01T07:41:31.193Z,994.17
2022-10-01T07:42:30.934Z,994.25
2022-10-01T07:43:30.913Z,994.25
2022-10-01T07:44:30.892Z,994.21
2022-10-01T07:45:30.961Z,994.23
2022-10-01T07:46:34.645Z,994.24
2022-10-01T07:47:30.826Z,994.22
2022-10-01T07:48:30.803Z,994.25
2022-10-01T07:49:30.782Z,994.24
2022-10-01T07:50:30.759Z,994.25
2022-10-01T07:51:30.919Z,994.20
2022-10-01T07:52:30.715Z,994.24
2022-10-01T07:53:30.697Z,994.31
2022-10-01T07:54:30.671Z,994.28
2022-10-01T07:55:30.668Z,994.23
2022-10-01T07:56:30.626Z,994.31
2022-10-01T07:57:30.608Z,994.34
2022-10-01T07:58:30.588Z,994.34
2022-10-01T07:59:30.563Z,994.31
2022-10-01T08:00:30.544Z,994.31
2022-10-01T08:01:30.597Z,994.26
2022-10-01T08:02:30.575Z,994.34
2022-10-01T08:03:30.478Z,994.36
2022-10-01T08:04:30.450Z,994.35
2022-10-01T08:05:30.432Z,994.39
2022-10-01T08:06:30.408Z,994.38
2022-10-01T08:07:30.395Z,994.43
2022-10-01T08:08:30.366Z,994.47
2022-10-01T08:09:30.347Z,994.47
2022-10-01T08:10:30.326Z,994.46
2022-10-01T08:11:30.302Z,994.55
2022-10-01T08:12:30.276Z,994.50
2022-10-01T08:13:30.261Z,994.49
2022-10-01T08:14:30.238Z,994.50
2022-10-01T08:15:30.214Z,994.48
2022-10-01T08:16:30.284Z,994.49
2022-10-01T08:17:30.187Z,994.48
2022-10-01T08:18:30.151Z,994.54
2022-10-01T08:19:30.129Z,994.50
2022-10-01T08:20:30.104Z,994.55
2022-10-01T08:21:30.085Z,994.57
2022-10-01T08:22:30.061Z,994.62
2022-10-01T08:23:30.042Z,994.56
2022-10-01T08:24:30.019Z,994.60
2022-10-01T08:25:30.017Z,994.55
2022-10-01T08:26:29.973Z,994.59
2022-10-01T08:27:29.968Z,994.61
2022-10-01T08:28:30.120Z,994.64
2022-10-01T08:29:29.918Z,994.63
2022-10-01T08:30:29.892Z,994.67
2022-10-01T08:31:29.890Z,994.68
2022-10-01T08:32:29.847Z,994.73
2022-10-01T08:33:29.844Z,994.69
2022-10-01T08:34:29.805Z,994.69
2022-10-01T08:35:29.783Z,994.71
2022-10-01T08:36:29.758Z,994.73
2022-10-01T08:37:29.744Z,994.73
2022-10-01T08:38:29.720Z,994.73
2022-10-01T08:39:29.697Z,994.74
2022-10-01T08:40:29.677Z,994.71
2022-10-01T08:41:29.654Z,994.73
2022-10-01T08:42:29.633Z,994.74
2022-10-01T08:43:29.612Z,994.76
2022-10-01T08:44:29.588Z,994.85
2022-10-01T08:45:29.654Z,994.92
2022-10-01T08:46:29.547Z,994.84
2022-10-01T08:47:29.527Z,994.88
2022-10-01T08:48:29.504Z,994.96
2022-10-01T08:49:29.502Z,994.97
2022-10-01T08:50:29.463Z,994.99
2022-10-01T08:51:29.442Z,995.04
2022-10-01T08:52:29.419Z,995.02
2022-10-01T08:53:29.396Z,995.07
2022-10-01T08:54:29.378Z,995.04
2022-10-01T08:55:29.354Z,995.16
2022-10-01T08:56:29.332Z,995.15
2022-10-01T08:57:29.312Z,995.20
2022-10-01T08:58:29.290Z,995.20
2022-10-01T08:59:29.269Z,995.22
2022-10-01T09:00:29.246Z,995.21
2022-10-01T09:01:29.295Z,995.21
2022-10-01T09:02:29.208Z,995.24
2022-10-01T09:03:29.184Z,995.26
2022-10-01T09:04:29.247Z,995.24
2022-10-01T09:05:29.164Z,995.27
2022-10-01T09:06:29.122Z,995.25
2022-10-01T09:07:29.098Z,995.30
2022-10-01T09:08:29.079Z,995.40
2022-10-01T09:09:29.059Z,995.24
2022-10-01T09:10:29.038Z,995.26
2022-10-01T09:11:29.016Z,995.22
2022-10-01T09:12:28.995Z,995.24
2022-10-01T09:13:28.974Z,995.28
2022-10-01T09:14:28.949Z,995.29
2022-10-01T09:15:28.933Z,995.23
2022-10-01T09:16:28.982Z,995.30
2022-10-01T09:17:28.891Z,995.33
2022-10-01T09:18:28.867Z,995.34
2022-10-01T09:19:28.848Z,995.32
2022-10-01T09:20:28.825Z,995.33
2022-10-01T09:21:28.822Z,995.28
2022-10-01T09:22:28.783Z,995.33
2022-10-01T09:23:28.760Z,995.28
2022-10-01T09:24:28.741Z,995.30
2022-10-01T09:25:28.721Z,995.27
2022-10-01T09:26:28.696Z,995.29
2022-10-01T09:27:28.679Z,995.33
2022-10-01T09:28:28.737Z,995.34
2022-10-01T09:29:28.636Z,995.35
2022-10-01T09:30:28.611Z,995.35
2022-10-01T09:31:28.674Z,995.37
2022-10-01T09:32:28.569Z,995.31
2022-10-01T09:33:28.554Z,995.37
2022-10-01T09:34:28.529Z,995.37
2022-10-01T09:35:28.511Z,995.39
2022-10-01T09:36:28.487Z,995.42
2022-10-01T09:37:28.491Z,995.40
2022-10-01T09:38:28.446Z,995.40
2022-10-01T09:39:28.425Z,995.43
2022-10-01T09:40:28.404Z,995.40
2022-10-01T09:41:28.384Z,995.43
2022-10-01T09:42:28.363Z,995.43
2022-10-01T09:43:28.341Z,995.45
2022-10-01T09:44:28.320Z,995.41
2022-10-01T09:45:28.400Z,995.45
2022-10-01T09:46:28.279Z,995.37
2022-10-01T09:47:28.260Z,995.40
2022-10-01T09:48:28.237Z,995.40
2022-10-01T09:49:28.216Z,995.41
2022-10-01T09:50:28.197Z,995.46
2022-10-01T09:51:28.175Z,995.42
2022-10-01T09:52:28.153Z,995.47
2022-10-01T09:53:28.149Z,995.49
2022-10-01T09:54:28.110Z,995.51
2022-10-01T09:55:28.092Z,995.54
2022-10-01T09:56:28.068Z,995.55
2022-10-01T09:57:28.051Z,995.59
2022-10-01T09:58:28.028Z,995.59
2022-10-01T09:59:28.007Z,995.62
2022-10-01T10:00:27.988Z,995.60
2022-10-01T10:01:27.983Z,995.61
2022-10-01T10:02:28.099Z,995.65
2022-10-01T10:03:28.069Z,995.61
2022-10-01T10:04:27.905Z,995.61
2022-10-01T10:05:27.885Z,995.65
2022-10-01T10:06:27.863Z,995.63
2022-10-01T10:07:27.843Z,995.61
2022-10-01T10:08:27.823Z,995.69
2022-10-01T10:09:27.820Z,995.64
2022-10-01T10:10:27.789Z,995.72
2022-10-01T10:11:27.758Z,995.81
2022-10-01T10:12:27.740Z,995.83
2022-10-01T10:13:27.720Z,995.82
2022-10-01T10:14:27.701Z,995.82
2022-10-01T10:15:27.675Z,995.83
2022-10-01T10:16:27.733Z,995.85
2022-10-01T10:17:27.639Z,995.86
2022-10-01T10:18:27.616Z,995.86
2022-10-01T10:19:27.602Z,995.84
2022-10-01T10:20:27.576Z,995.78
2022-10-01T10:21:27.553Z,995.80
2022-10-01T10:22:27.534Z,995.80
2022-10-01T10:23:27.509Z,995.82
2022-10-01T10:24:27.492Z,995.86
2022-10-01T10:25:27.488Z,995.82
2022-10-01T10:26:27.453Z,995.83
2022-10-01T10:27:27.433Z,995.81
2022-10-01T10:28:27.485Z,995.84
2022-10-01T10:29:27.388Z,995.98
2022-10-01T10:30:27.371Z,995.88
2022-10-01T10:31:27.375Z,996.00
2022-10-01T10:32:27.329Z,995.97
2022-10-01T10:33:27.306Z,995.97
2022-10-01T10:34:27.289Z,995.91
2022-10-01T10:35:27.277Z,995.95
2022-10-01T10:36:27.252Z,995.90
2022-10-01T10:37:27.225Z,995.88
2022-10-01T10:38:27.207Z,995.97
2022-10-01T10:39:27.182Z,996.01
2022-10-01T10:40:29.763Z,996.01
2022-10-01T10:41:27.159Z,995.97
2022-10-01T10:42:27.133Z,996.01
2022-10-01T10:43:27.100Z,995.97
2022-10-01T10:44:27.084Z,995.99
2022-10-01T10:45:27.061Z,996.00
2022-10-01T10:46:27.129Z,996.11
2022-10-01T10:47:27.019Z,996.04
2022-10-01T10:48:27.002Z,996.04
2022-10-01T10:49:26.979Z,996.07
2022-10-01T10:50:26.961Z,996.04
2022-10-01T10:51:26.938Z,996.06
2022-10-01T10:52:26.919Z,996.03
2022-10-01T10:53:26.898Z,995.99
2022-10-01T10:54:26.881Z,995.94
2022-10-01T10:55:26.858Z,995.96
2022-10-01T10:56:26.841Z,996.03
2022-10-01T10:57:26.840Z,996.00
2022-10-01T10:58:26.799Z,995.96
2022-10-01T10:59:26.776Z,995.98
2022-10-01T11:00:26.771Z,996.03
2022-10-01T11:01:26.814Z,996.06
2022-10-01T11:02:26.761Z,996.06
2022-10-01T11:03:26.695Z,996.08
2022-10-01T11:04:26.677Z,996.09
2022-10-01T11:05:26.657Z,996.13
2022-10-01T11:06:26.638Z,996.12
2022-10-01T11:07:26.615Z,996.11
2022-10-01T11:08:26.595Z,996.07
2022-10-01T11:09:26.576Z,996.11
2022-10-01T11:10:26.559Z,996.15
2022-10-01T11:11:26.537Z,996.12
2022-10-01T11:12:26.517Z,996.06
2022-10-01T11:13:26.511Z,996.13
2022-10-01T11:14:26.479Z,996.16
2022-10-01T11:15:26.456Z,996.17
2022-10-01T11:16:26.560Z,996.17
2022-10-01T11:17:26.415Z,996.17
2022-10-01T11:18:26.396Z,996.16
2022-10-01T11:19:26.377Z,996.24
2022-10-01T11:20:26.357Z,996.28
2022-10-01T11:21:26.333Z,996.25
2022-10-01T11:22:26.317Z,996.23
2022-10-01T11:23:26.293Z,996.25
2022-10-01T11:24:26.276Z,996.27
2022-10-01T11:25:26.254Z,996.22
2022-10-01T11:26:26.236Z,996.26
2022-10-01T11:27:26.214Z,996.26
2022-10-01T11:28:26.249Z,996.28
2022-10-01T11:29:26.194Z,996.32
2022-10-01T11:30:26.153Z,996.31
2022-10-01T11:31:26.234Z,996.33
2022-10-01T11:32:26.115Z,996.32
2022-10-01T11:33:26.092Z,996.33
2022-10-01T11:34:26.075Z,996.33
2022-10-01T11:35:26.052Z,996.29
2022-10-01T11:36:26.032Z,996.30
2022-10-01T11:37:26.011Z,996.31
2022-10-01T11:38:25.996Z,996.31
2022-10-01T11:39:25.971Z,996.28
2022-10-01T11:40:25.953Z,996.24
2022-10-01T11:41:25.931Z,996.32
2022-10-01T11:42:25.914Z,996.28
2022-10-01T11:43:25.893Z,996.28
2022-10-01T11:44:25.872Z,996.29
2022-10-01T11:45:25.865Z,996.26
2022-10-01T11:46:25.855Z,996.29
2022-10-01T11:47:25.809Z,996.27
2022-10-01T11:48:25.807Z,996.28
2022-10-01T11:49:25.770Z,996.30
2022-10-01T11:50:25.752Z,996.30
2022-10-01T11:51:25.728Z,996.37
2022-10-01T11:52:25.711Z,996.37
2022-10-01T11:53:25.691Z,996.38
2022-10-01T11:54:25.670Z,996.38
2022-10-01T11:55:25.646Z,996.41
2022-10-01T11:56:25.630Z,996.39
2022-10-01T11:57:25.605Z,996.42
2022-10-01T11:58:25.588Z,996.35
2022-10-01T11:59:25.566Z,996.40
2022-10-01T12:00:27.430Z,996.46
2022-10-01T12:01:25.545Z,996.42
2022-10-01T12:02:25.586Z,996.39
2022-10-01T12:03:25.488Z,996.48
2022-10-01T12:04:25.466Z,996.47
2022-10-01T12:05:25.523Z,996.51
2022-10-01T12:06:28.439Z,996.50
2022-10-01T12:07:25.405Z,996.56
2022-10-01T12:08:25.387Z,996.52
2022-10-01T12:09:25.365Z,996.56
2022-10-01T12:10:25.346Z,996.61
2022-10-01T12:11:25.327Z,996.64
2022-10-01T12:12:25.310Z,996.57
2022-10-01T12:13:25.285Z,996.61
2022-10-01T12:14:25.265Z,996.66
2022-10-01T12:15:25.245Z,996.67
2022-10-01T12:16:25.293Z,996.69
2022-10-01T12:17:25.222Z,996.65
2022-10-01T12:18:25.185Z,996.70
2022-10-01T12:19:25.162Z,996.73
2022-10-01T12:20:25.150Z,996.71
2022-10-01T12:21:25.128Z,996.79
2022-10-01T12:22:25.109Z,996.77
2022-10-01T12:23:25.083Z,996.73
2022-10-01T12:24:25.065Z,996.75
2022-10-01T12:25:25.042Z,996.80
2022-10-01T12:26:25.026Z,996.79
2022-10-01T12:27:25.001Z,996.74
2022-10-01T12:28:25.014Z,996.75
2022-10-01T12:29:24.963Z,996.74
2022-10-01T12:30:24.947Z,996.77
2022-10-01T12:31:24.989Z,996.79
2022-10-01T12:32:24.902Z,996.76
2022-10-01T12:33:24.899Z,996.74
2022-10-01T12:34:24.862Z,996.76
2022-10-01T12:35:24.844Z,996.75
2022-10-01T12:36:24.825Z,996.79
2022-10-01T12:37:24.800Z,996.83
2022-10-01T12:38:24.783Z,996.84
2022-10-01T12:39:24.760Z,996.85
2022-10-01T12:40:24.742Z,996.84
2022-10-01T12:41:24.723Z,996.87
2022-10-01T12:42:24.701Z,996.84
2022-10-01T12:43:24.676Z,996.90
2022-10-01T12:44:24.659Z,996.91
2022-10-01T12:45:24.637Z,996.91
2022-10-01T12:46:24.702Z,996.92
2022-10-01T12:47:24.598Z,996.94
2022-10-01T12:48:24.580Z,996.97
2022-10-01T12:49:24.577Z,996.99
2022-10-01T12:50:24.543Z,996.98
2022-10-01T12:51:24.518Z,997.02
2022-10-01T12:52:24.499Z,996.96
2022-10-01T12:53:24.477Z,997.01
2022-10-01T12:54:24.462Z,997.04
2022-10-01T12:55:24.434Z,997.07
2022-10-01T12:56:24.422Z,997.04
2022-10-01T12:57:24.408Z,997.03
2022-10-01T12:58:24.378Z,997.01
2022-10-01T12:59:24.368Z,997.07
2022-10-01T13:00:24.337Z,997.04
2022-10-01T13:01:24.372Z,997.04
2022-10-01T13:02:24.365Z,997.04
2022-10-01T13:03:24.273Z,997.09
2022-10-01T13:04:24.257Z,997.08
2022-10-01T13:05:24.255Z,997.10
2022-10-01T13:06:24.215Z,997.06
2022-10-01T13:07:24.192Z,997.00
2022-10-01T13:08:24.173Z,997.03
2022-10-01T13:09:24.653Z,996.97
2022-10-01T13:10:24.136Z,996.91
2022-10-01T13:11:24.112Z,997.03
2022-10-01T13:12:24.094Z,996.99
2022-10-01T13:13:24.073Z,996.96
2022-10-01T13:14:24.052Z,996.97
2022-10-01T13:15:24.031Z,996.97
2022-10-01T13:16:24.072Z,997.03
2022-10-01T13:17:23.990Z,997.00
2022-10-01T13:18:23.970Z,997.07
2022-10-01T13:19:23.950Z,997.12
2022-10-01T13:20:23.933Z,997.15
2022-10-01T13:21:23.929Z,997.16
2022-10-01T13:22:23.894Z,997.08
2022-10-01T13:23:23.869Z,997.14
2022-10-01T13:24:23.852Z,997.13
2022-10-01T13:25:23.834Z,997.12
2022-10-01T13:26:23.812Z,997.20
2022-10-01T13:27:23.790Z,997.20
2022-10-01T13:28:23.880Z,997.20
2022-10-01T13:29:23.752Z,997.34
2022-10-01T13:30:23.731Z,997.32
2022-10-01T13:31:23.773Z,997.34
2022-10-01T13:32:23.691Z,997.34
2022-10-01T13:33:23.670Z,997.41
2022-10-01T13:34:23.652Z,997.43
2022-10-01T13:35:23.627Z,997.47
2022-10-01T13:36:23.610Z,997.51
2022-10-01T13:37:23.612Z,997.55
2022-10-01T13:38:23.570Z,997.56
2022-10-01T13:39:23.548Z,997.49
2022-10-01T13:40:23.530Z,997.55
2022-10-01T13:41:23.512Z,997.53
2022-10-01T13:42:23.498Z,997.58
2022-10-01T13:43:23.468Z,997.68
2022-10-01T13:44:23.450Z,997.67
2022-10-01T13:45:23.430Z,997.62
2022-10-01T13:46:23.464Z,997.63
2022-10-01T13:47:23.390Z,997.68
2022-10-01T13:48:23.375Z,997.70
2022-10-01T13:49:23.352Z,997.64
2022-10-01T13:50:23.332Z,997.73
2022-10-01T13:51:23.312Z,997.71
2022-10-01T13:52:23.293Z,997.76
2022-10-01T13:53:23.289Z,997.75
2022-10-01T13:54:23.256Z,997.70
2022-10-01T13:55:23.232Z,997.77
2022-10-01T13:56:23.215Z,997.81
2022-10-01T13:57:23.197Z,997.76
2022-10-01T13:58:23.176Z,997.85
2022-10-01T13:59:23.155Z,997.90
2022-10-01T14:00:23.141Z,997.82
2022-10-01T14:01:24.448Z,997.84
2022-10-01T14:02:23.225Z,997.86
2022-10-01T14:03:23.078Z,997.74
2022-10-01T14:04:23.055Z,997.94
2022-10-01T14:05:23.038Z,997.93